sensor_id;sensor_type;location;lat;lon;timestamp;temperature;humidity
53695;DHT22;39588;51.124;7.190;2024-01-30T00:00:05;6.90;99.90
53695;DHT22;39588;51.124;7.190;2024-01-30T00:02:32;6.90;99.90
53695;DHT22;39588;51.124;7.190;2024-01-30T00:04:57;6.90;99.90
53695;DHT22;39588;51.124;7.190;2024-01-30T00:07:39;6.80;99.90
53695;DHT22;39588;51.124;7.190;2024-01-30T00:10:13;6.80;99.90
53695;DHT22;39588;51.124;7.190;2024-01-30T00:12:39;6.80;99.90
53695;DHT22;39588;51.124;7.190;2024-01-30T00:15:05;6.80;99.90
53695;DHT22;39588;51.124;7.190;2024-01-30T00:19:59;6.80;99.90
53695;DHT22;39588;51.124;7.190;2024-01-30T00:22:50;6.80;99.90
53695;DHT22;39588;51.124;7.190;2024-01-30T00:25:15;6.70;99.90
53695;DHT22;39588;51.124;7.190;2024-01-30T00:27:41;6.80;99.90
53695;DHT22;39588;51.124;7.190;2024-01-30T00:42:17;6.70;99.90
53695;DHT22;39588;51.124;7.190;2024-01-30T00:44:43;6.70;99.90
53695;DHT22;39588;51.124;7.190;2024-01-30T00:52:00;6.60;99.90
53695;DHT22;39588;51.124;7.190;2024-01-30T00:54:26;6.70;99.90
53695;DHT22;39588;51.124;7.190;2024-01-30T00:56:51;6.60;99.90
53695;DHT22;39588;51.124;7.190;2024-01-30T00:59:17;6.60;99.90
53695;DHT22;39588;51.124;7.190;2024-01-30T01:01:43;6.60;99.90
53695;DHT22;39588;51.124;7.190;2024-01-30T01:04:08;6.60;99.90
53695;DHT22;39588;51.124;7.190;2024-01-30T01:09:00;6.60;99.90
53695;DHT22;39588;51.124;7.190;2024-01-30T01:11:25;6.60;99.90
53695;DHT22;39588;51.124;7.190;2024-01-30T01:13:51;6.60;99.90
53695;DHT22;39588;51.124;7.190;2024-01-30T01:35:50;6.60;99.90
53695;DHT22;39588;51.124;7.190;2024-01-30T01:38:15;6.60;99.90
53695;DHT22;39588;51.124;7.190;2024-01-30T01:40:41;6.60;99.90
53695;DHT22;39588;51.124;7.190;2024-01-30T01:45:32;6.60;99.90
53695;DHT22;39588;51.124;7.190;2024-01-30T01:47:58;6.60;99.90
53695;DHT22;39588;51.124;7.190;2024-01-30T01:50:24;6.60;99.90
53695;DHT22;39588;51.124;7.190;2024-01-30T01:52:50;6.60;99.90
53695;DHT22;39588;51.124;7.190;2024-01-30T01:55:18;6.70;99.90
53695;DHT22;39588;51.124;7.190;2024-01-30T01:57:47;6.70;99.90
53695;DHT22;39588;51.124;7.190;2024-01-30T02:00:13;6.70;99.90
53695;DHT22;39588;51.124;7.190;2024-01-30T02:02:46;6.70;99.90
53695;DHT22;39588;51.124;7.190;2024-01-30T02:07:46;6.70;99.90
53695;DHT22;39588;51.124;7.190;2024-01-30T02:10:17;6.70;99.90
53695;DHT22;39588;51.124;7.190;2024-01-30T02:12:44;6.70;99.90
53695;DHT22;39588;51.124;7.190;2024-01-30T02:15:13;6.70;99.90
53695;DHT22;39588;51.124;7.190;2024-01-30T02:17:39;6.70;99.90
53695;DHT22;39588;51.124;7.190;2024-01-30T02:20:06;6.80;99.90
53695;DHT22;39588;51.124;7.190;2024-01-30T02:22:33;6.80;99.90
53695;DHT22;39588;51.124;7.190;2024-01-30T02:24:59;6.80;99.90
53695;DHT22;39588;51.124;7.190;2024-01-30T02:41:50;6.70;99.90
53695;DHT22;39588;51.124;7.190;2024-01-30T02:44:16;6.70;99.90
53695;DHT22;39588;51.124;7.190;2024-01-30T02:49:07;6.80;99.90
53695;DHT22;39588;51.124;7.190;2024-01-30T02:53:59;6.80;99.90
53695;DHT22;39588;51.124;7.190;2024-01-30T02:56:24;6.80;99.90
53695;DHT22;39588;51.124;7.190;2024-01-30T03:06:08;6.90;99.90
53695;DHT22;39588;51.124;7.190;2024-01-30T03:08:35;6.90;99.90
53695;DHT22;39588;51.124;7.190;2024-01-30T03:13:27;6.90;99.90
53695;DHT22;39588;51.124;7.190;2024-01-30T03:20:44;6.90;99.90
53695;DHT22;39588;51.124;7.190;2024-01-30T03:23:10;6.90;99.90
53695;DHT22;39588;51.124;7.190;2024-01-30T03:25:35;6.90;99.90
53695;DHT22;39588;51.124;7.190;2024-01-30T03:37:45;6.90;99.90
53695;DHT22;39588;51.124;7.190;2024-01-30T03:40:11;6.90;99.90
53695;DHT22;39588;51.124;7.190;2024-01-30T03:42:37;6.90;99.90
53695;DHT22;39588;51.124;7.190;2024-01-30T03:45:02;6.90;99.90
53695;DHT22;39588;51.124;7.190;2024-01-30T03:47:28;6.90;99.90
53695;DHT22;39588;51.124;7.190;2024-01-30T03:59:38;7.00;99.90
53695;DHT22;39588;51.124;7.190;2024-01-30T04:04:29;7.00;99.90
53695;DHT22;39588;51.124;7.190;2024-01-30T04:06:55;7.00;99.90
53695;DHT22;39588;51.124;7.190;2024-01-30T04:09:21;7.00;99.90
53695;DHT22;39588;51.124;7.190;2024-01-30T04:14:12;6.90;99.90
53695;DHT22;39588;51.124;7.190;2024-01-30T04:16:38;6.90;99.90
53695;DHT22;39588;51.124;7.190;2024-01-30T04:23:55;6.90;99.90
53695;DHT22;39588;51.124;7.190;2024-01-30T04:36:08;6.80;99.90
53695;DHT22;39588;51.124;7.190;2024-01-30T04:38:35;6.80;99.90
53695;DHT22;39588;51.124;7.190;2024-01-30T04:43:27;6.80;99.90
53695;DHT22;39588;51.124;7.190;2024-01-30T04:48:19;6.80;99.90
53695;DHT22;39588;51.124;7.190;2024-01-30T04:50:44;6.70;99.90
53695;DHT22;39588;51.124;7.190;2024-01-30T04:55:36;6.70;99.90
53695;DHT22;39588;51.124;7.190;2024-01-30T05:00:27;6.60;99.90
53695;DHT22;39588;51.124;7.190;2024-01-30T05:02:55;6.60;99.90
53695;DHT22;39588;51.124;7.190;2024-01-30T05:07:47;6.50;99.90
53695;DHT22;39588;51.124;7.190;2024-01-30T05:10:13;6.50;99.90
53695;DHT22;39588;51.124;7.190;2024-01-30T05:12:39;6.50;99.90
53695;DHT22;39588;51.124;7.190;2024-01-30T05:15:05;6.50;99.90
53695;DHT22;39588;51.124;7.190;2024-01-30T05:17:31;6.50;99.90
53695;DHT22;39588;51.124;7.190;2024-01-30T05:22:23;6.50;99.90
53695;DHT22;39588;51.124;7.190;2024-01-30T05:27:15;6.50;99.90
53695;DHT22;39588;51.124;7.190;2024-01-30T05:29:40;6.50;99.90
53695;DHT22;39588;51.124;7.190;2024-01-30T05:32:06;6.50;99.90
53695;DHT22;39588;51.124;7.190;2024-01-30T05:36:58;6.60;99.90
53695;DHT22;39588;51.124;7.190;2024-01-30T05:39:24;6.50;99.90
53695;DHT22;39588;51.124;7.190;2024-01-30T05:51:33;6.50;99.90
53695;DHT22;39588;51.124;7.190;2024-01-30T05:53:59;6.40;99.90
53695;DHT22;39588;51.124;7.190;2024-01-30T05:56:25;6.50;99.90
53695;DHT22;39588;51.124;7.190;2024-01-30T06:03:42;6.50;99.90
53695;DHT22;39588;51.124;7.190;2024-01-30T06:06:09;6.50;99.90
53695;DHT22;39588;51.124;7.190;2024-01-30T06:11:00;6.50;99.90
53695;DHT22;39588;51.124;7.190;2024-01-30T06:13:26;6.50;99.90
53695;DHT22;39588;51.124;7.190;2024-01-30T06:15:52;6.50;99.90
53695;DHT22;39588;51.124;7.190;2024-01-30T06:18:18;6.50;99.90
53695;DHT22;39588;51.124;7.190;2024-01-30T06:20:44;6.50;99.90
53695;DHT22;39588;51.124;7.190;2024-01-30T06:23:09;6.40;99.90
53695;DHT22;39588;51.124;7.190;2024-01-30T06:25:35;6.40;99.90
53695;DHT22;39588;51.124;7.190;2024-01-30T06:28:01;6.40;99.90
53695;DHT22;39588;51.124;7.190;2024-01-30T06:30:26;6.50;99.90
53695;DHT22;39588;51.124;7.190;2024-01-30T06:32:52;6.50;99.90
53695;DHT22;39588;51.124;7.190;2024-01-30T06:35:18;6.50;99.90
53695;DHT22;39588;51.124;7.190;2024-01-30T06:49:54;6.50;99.90
53695;DHT22;39588;51.124;7.190;2024-01-30T06:57:12;6.60;99.90
53695;DHT22;39588;51.124;7.190;2024-01-30T07:02:12;6.70;99.90
53695;DHT22;39588;51.124;7.190;2024-01-30T07:04:38;6.70;99.90
53695;DHT22;39588;51.124;7.190;2024-01-30T07:07:05;6.70;99.90
53695;DHT22;39588;51.124;7.190;2024-01-30T07:11:57;6.70;99.90
53695;DHT22;39588;51.124;7.190;2024-01-30T07:14:28;6.70;99.90
53695;DHT22;39588;51.124;7.190;2024-01-30T07:16:54;6.80;99.90
53695;DHT22;39588;51.124;7.190;2024-01-30T07:19:20;6.80;99.90
53695;DHT22;39588;51.124;7.190;2024-01-30T07:38:47;6.90;99.90
53695;DHT22;39588;51.124;7.190;2024-01-30T07:41:13;6.90;99.90
53695;DHT22;39588;51.124;7.190;2024-01-30T07:43:39;7.00;99.90
53695;DHT22;39588;51.124;7.190;2024-01-30T07:46:04;6.90;99.90
53695;DHT22;39588;51.124;7.190;2024-01-30T07:48:34;6.90;99.90
53695;DHT22;39588;51.124;7.190;2024-01-30T08:05:36;7.20;99.90
53695;DHT22;39588;51.124;7.190;2024-01-30T08:08:03;7.30;99.90
53695;DHT22;39588;51.124;7.190;2024-01-30T08:15:21;7.30;99.90
53695;DHT22;39588;51.124;7.190;2024-01-30T08:17:46;7.40;99.90
53695;DHT22;39588;51.124;7.190;2024-01-30T08:20:12;7.40;99.90
53695;DHT22;39588;51.124;7.190;2024-01-30T08:22:54;7.40;99.90
53695;DHT22;39588;51.124;7.190;2024-01-30T08:27:49;7.50;99.90
53695;DHT22;39588;51.124;7.190;2024-01-30T08:30:16;7.50;99.90
53695;DHT22;39588;51.124;7.190;2024-01-30T08:32:49;7.50;99.90
53695;DHT22;39588;51.124;7.190;2024-01-30T08:35:14;7.60;99.90
53695;DHT22;39588;51.124;7.190;2024-01-30T08:37:41;7.60;99.90
53695;DHT22;39588;51.124;7.190;2024-01-30T08:40:08;7.60;99.90
53695;DHT22;39588;51.124;7.190;2024-01-30T08:42:36;7.60;99.90
53695;DHT22;39588;51.124;7.190;2024-01-30T08:45:02;7.60;99.90
53695;DHT22;39588;51.124;7.190;2024-01-30T08:47:31;7.60;99.90
53695;DHT22;39588;51.124;7.190;2024-01-30T08:49:56;7.60;99.90
53695;DHT22;39588;51.124;7.190;2024-01-30T08:54:48;7.70;99.90
53695;DHT22;39588;51.124;7.190;2024-01-30T08:57:14;7.70;99.90
53695;DHT22;39588;51.124;7.190;2024-01-30T09:02:05;7.70;99.90
53695;DHT22;39588;51.124;7.190;2024-01-30T09:09:23;7.80;99.90
53695;DHT22;39588;51.124;7.190;2024-01-30T09:11:49;7.80;99.90
53695;DHT22;39588;51.124;7.190;2024-01-30T09:16:41;8.10;99.90
53695;DHT22;39588;51.124;7.190;2024-01-30T09:19:06;8.20;99.90
53695;DHT22;39588;51.124;7.190;2024-01-30T09:21:33;8.30;99.90
53695;DHT22;39588;51.124;7.190;2024-01-30T09:24:03;8.40;99.90
53695;DHT22;39588;51.124;7.190;2024-01-30T09:26:45;8.50;99.90
53695;DHT22;39588;51.124;7.190;2024-01-30T09:29:15;8.50;99.90
53695;DHT22;39588;51.124;7.190;2024-01-30T09:31:45;8.60;99.90
53695;DHT22;39588;51.124;7.190;2024-01-30T09:34:14;8.60;99.90
53695;DHT22;39588;51.124;7.190;2024-01-30T09:41:33;9.10;99.90
53695;DHT22;39588;51.124;7.190;2024-01-30T09:46:28;9.30;99.90
53695;DHT22;39588;51.124;7.190;2024-01-30T09:48:57;9.30;99.90
53695;DHT22;39588;51.124;7.190;2024-01-30T09:51:24;9.40;99.90
53695;DHT22;39588;51.124;7.190;2024-01-30T09:53:50;9.30;99.90
53695;DHT22;39588;51.124;7.190;2024-01-30T10:03:34;9.20;99.90
53695;DHT22;39588;51.124;7.190;2024-01-30T10:06:01;9.20;99.90
53695;DHT22;39588;51.124;7.190;2024-01-30T10:08:27;9.20;99.90
53695;DHT22;39588;51.124;7.190;2024-01-30T10:10:53;9.20;99.90
53695;DHT22;39588;51.124;7.190;2024-01-30T10:13:19;9.20;99.90
53695;DHT22;39588;51.124;7.190;2024-01-30T10:25:31;9.60;99.90
53695;DHT22;39588;51.124;7.190;2024-01-30T10:27:57;9.80;99.90
53695;DHT22;39588;51.124;7.190;2024-01-30T10:30:24;10.00;99.90
53695;DHT22;39588;51.124;7.190;2024-01-30T10:32:50;10.10;99.90
53695;DHT22;39588;51.124;7.190;2024-01-30T10:35:16;10.10;99.90
53695;DHT22;39588;51.124;7.190;2024-01-30T10:37:43;10.10;99.90
53695;DHT22;39588;51.124;7.190;2024-01-30T10:40:13;10.10;99.90
53695;DHT22;39588;51.124;7.190;2024-01-30T10:42:42;10.30;99.90
53695;DHT22;39588;51.124;7.190;2024-01-30T10:45:12;10.50;99.90
53695;DHT22;39588;51.124;7.190;2024-01-30T10:47:40;12.40;99.90
53695;DHT22;39588;51.124;7.190;2024-01-30T10:50:07;10.60;99.80
53695;DHT22;39588;51.124;7.190;2024-01-30T10:55:00;10.70;99.70
53695;DHT22;39588;51.124;7.190;2024-01-30T10:57:27;10.70;99.70
53695;DHT22;39588;51.124;7.190;2024-01-30T10:59:55;10.70;99.70
53695;DHT22;39588;51.124;7.190;2024-01-30T11:02:22;10.70;99.90
53695;DHT22;39588;51.124;7.190;2024-01-30T11:04:49;10.70;99.70
53695;DHT22;39588;51.124;7.190;2024-01-30T11:07:19;10.80;99.70
53695;DHT22;39588;51.124;7.190;2024-01-30T11:10:09;10.80;99.50
53695;DHT22;39588;51.124;7.190;2024-01-30T11:12:39;10.80;99.70
53695;DHT22;39588;51.124;7.190;2024-01-30T11:15:10;10.90;99.60
53695;DHT22;39588;51.124;7.190;2024-01-30T11:20:33;10.80;99.60
53695;DHT22;39588;51.124;7.190;2024-01-30T11:22:58;10.90;99.50
53695;DHT22;39588;51.124;7.190;2024-01-30T11:25:25;10.90;99.50
53695;DHT22;39588;51.124;7.190;2024-01-30T11:27:52;10.90;99.40
53695;DHT22;39588;51.124;7.190;2024-01-30T11:30:28;11.00;99.60
53695;DHT22;39588;51.124;7.190;2024-01-30T11:35:36;11.10;99.60
53695;DHT22;39588;51.124;7.190;2024-01-30T11:38:03;11.20;99.50
53695;DHT22;39588;51.124;7.190;2024-01-30T11:40:29;11.20;99.40
53695;DHT22;39588;51.124;7.190;2024-01-30T11:42:56;11.20;99.40
53695;DHT22;39588;51.124;7.190;2024-01-30T11:45:23;11.40;99.50
53695;DHT22;39588;51.124;7.190;2024-01-30T11:50:15;11.50;98.90
53695;DHT22;39588;51.124;7.190;2024-01-30T11:52:41;11.60;99.20
53695;DHT22;39588;51.124;7.190;2024-01-30T11:55:09;11.60;99.00
53695;DHT22;39588;51.124;7.190;2024-01-30T12:00:03;11.80;98.90
53695;DHT22;39588;51.124;7.190;2024-01-30T12:02:36;12.00;98.80
53695;DHT22;39588;51.124;7.190;2024-01-30T12:05:06;12.10;98.80
53695;DHT22;39588;51.124;7.190;2024-01-30T12:07:32;12.20;98.70
53695;DHT22;39588;51.124;7.190;2024-01-30T12:09:58;12.30;98.90
53695;DHT22;39588;51.124;7.190;2024-01-30T12:12:28;12.30;98.60
53695;DHT22;39588;51.124;7.190;2024-01-30T12:14:54;12.40;98.60
53695;DHT22;39588;51.124;7.190;2024-01-30T12:17:31;12.50;98.50
53695;DHT22;39588;51.124;7.190;2024-01-30T12:20:14;12.60;98.50
53695;DHT22;39588;51.124;7.190;2024-01-30T12:22:44;12.60;98.40
53695;DHT22;39588;51.124;7.190;2024-01-30T12:25:20;12.60;98.50
53695;DHT22;39588;51.124;7.190;2024-01-30T12:27:48;12.60;98.40
53695;DHT22;39588;51.124;7.190;2024-01-30T12:30:18;12.50;98.30
53695;DHT22;39588;51.124;7.190;2024-01-30T12:32:45;12.50;98.40
53695;DHT22;39588;51.124;7.190;2024-01-30T12:35:17;12.40;98.40
53695;DHT22;39588;51.124;7.190;2024-01-30T12:37:44;12.30;98.40
53695;DHT22;39588;51.124;7.190;2024-01-30T12:40:10;12.30;98.50
53695;DHT22;39588;51.124;7.190;2024-01-30T12:42:38;12.80;98.60
53695;DHT22;39588;51.124;7.190;2024-01-30T12:45:05;12.30;98.30
53695;DHT22;39588;51.124;7.190;2024-01-30T12:47:32;12.40;98.50
53695;DHT22;39588;51.124;7.190;2024-01-30T12:49:58;12.40;98.30
53695;DHT22;39588;51.124;7.190;2024-01-30T12:52:24;12.40;98.40
53695;DHT22;39588;51.124;7.190;2024-01-30T12:54:50;12.40;98.40
53695;DHT22;39588;51.124;7.190;2024-01-30T12:57:16;12.40;98.40
53695;DHT22;39588;51.124;7.190;2024-01-30T13:04:34;12.10;98.70
53695;DHT22;39588;51.124;7.190;2024-01-30T13:07:00;12.00;98.80
53695;DHT22;39588;51.124;7.190;2024-01-30T13:09:30;12.00;98.80
53695;DHT22;39588;51.124;7.190;2024-01-30T13:11:57;12.00;98.90
53695;DHT22;39588;51.124;7.190;2024-01-30T13:14:22;11.90;98.90
53695;DHT22;39588;51.124;7.190;2024-01-30T13:16:48;11.80;99.00
53695;DHT22;39588;51.124;7.190;2024-01-30T13:21:42;11.70;99.20
53695;DHT22;39588;51.124;7.190;2024-01-30T13:24:16;11.70;99.40
53695;DHT22;39588;51.124;7.190;2024-01-30T13:26:45;11.60;99.60
53695;DHT22;39588;51.124;7.190;2024-01-30T13:29:10;11.50;99.60
53695;DHT22;39588;51.124;7.190;2024-01-30T13:31:36;11.50;99.60
53695;DHT22;39588;51.124;7.190;2024-01-30T13:43:48;11.40;99.90
53695;DHT22;39588;51.124;7.190;2024-01-30T13:46:14;11.40;99.90
53695;DHT22;39588;51.124;7.190;2024-01-30T13:48:39;11.40;99.90
53695;DHT22;39588;51.124;7.190;2024-01-30T13:51:05;11.40;99.90
53695;DHT22;39588;51.124;7.190;2024-01-30T13:55:57;11.30;99.90
53695;DHT22;39588;51.124;7.190;2024-01-30T14:05:40;11.30;99.90
53695;DHT22;39588;51.124;7.190;2024-01-30T14:08:06;11.20;99.90
53695;DHT22;39588;51.124;7.190;2024-01-30T14:10:34;11.20;99.90
53695;DHT22;39588;51.124;7.190;2024-01-30T14:12:59;11.20;99.90
53695;DHT22;39588;51.124;7.190;2024-01-30T14:20:17;11.20;99.90
53695;DHT22;39588;51.124;7.190;2024-01-30T14:22:43;11.20;99.90
53695;DHT22;39588;51.124;7.190;2024-01-30T14:27:35;11.20;99.90
53695;DHT22;39588;51.124;7.190;2024-01-30T14:30:01;11.20;99.90
53695;DHT22;39588;51.124;7.190;2024-01-30T14:37:23;11.20;99.90
53695;DHT22;39588;51.124;7.190;2024-01-30T14:42:15;11.20;99.90
53695;DHT22;39588;51.124;7.190;2024-01-30T14:44:41;11.20;99.90
53695;DHT22;39588;51.124;7.190;2024-01-30T14:47:09;11.30;99.90
53695;DHT22;39588;51.124;7.190;2024-01-30T14:49:38;11.30;99.90
53695;DHT22;39588;51.124;7.190;2024-01-30T14:52:07;11.30;99.90
53695;DHT22;39588;51.124;7.190;2024-01-30T14:54:34;11.40;99.90
53695;DHT22;39588;51.124;7.190;2024-01-30T15:01:52;11.30;99.90
53695;DHT22;39588;51.124;7.190;2024-01-30T15:04:18;11.30;99.90
53695;DHT22;39588;51.124;7.190;2024-01-30T15:06:44;11.20;99.90
53695;DHT22;39588;51.124;7.190;2024-01-30T15:09:12;11.20;99.90
53695;DHT22;39588;51.124;7.190;2024-01-30T15:14:06;11.20;99.90
53695;DHT22;39588;51.124;7.190;2024-01-30T15:36:00;11.10;99.90
53695;DHT22;39588;51.124;7.190;2024-01-30T15:53:03;11.00;99.90
53695;DHT22;39588;51.124;7.190;2024-01-30T15:55:28;11.00;99.90
53695;DHT22;39588;51.124;7.190;2024-01-30T16:05:14;10.90;99.90
53695;DHT22;39588;51.124;7.190;2024-01-30T16:07:41;10.90;99.90
53695;DHT22;39588;51.124;7.190;2024-01-30T16:10:08;10.80;99.90
53695;DHT22;39588;51.124;7.190;2024-01-30T16:12:37;10.80;99.90
53695;DHT22;39588;51.124;7.190;2024-01-30T16:15:03;10.70;99.90
53695;DHT22;39588;51.124;7.190;2024-01-30T16:17:29;10.70;99.90
53695;DHT22;39588;51.124;7.190;2024-01-30T16:19:59;10.70;99.90
53695;DHT22;39588;51.124;7.190;2024-01-30T16:22:24;10.50;99.90
53695;DHT22;39588;51.124;7.190;2024-01-30T16:24:50;10.40;99.90
53695;DHT22;39588;51.124;7.190;2024-01-30T16:27:15;10.40;99.90
53695;DHT22;39588;51.124;7.190;2024-01-30T16:32:07;10.20;99.90
53695;DHT22;39588;51.124;7.190;2024-01-30T16:34:33;10.20;99.90
53695;DHT22;39588;51.124;7.190;2024-01-30T16:36:59;10.20;99.80
53695;DHT22;39588;51.124;7.190;2024-01-30T16:46:42;10.10;99.30
53695;DHT22;39588;51.124;7.190;2024-01-30T16:51:34;10.10;99.20
53695;DHT22;39588;51.124;7.190;2024-01-30T16:58:52;10.00;99.20
53695;DHT22;39588;51.124;7.190;2024-01-30T17:01:17;10.00;99.10
53695;DHT22;39588;51.124;7.190;2024-01-30T17:06:12;10.00;98.90
53695;DHT22;39588;51.124;7.190;2024-01-30T17:08:38;9.90;99.40
53695;DHT22;39588;51.124;7.190;2024-01-30T17:11:04;9.90;99.00
53695;DHT22;39588;51.124;7.190;2024-01-30T17:13:30;9.90;99.00
53695;DHT22;39588;51.124;7.190;2024-01-30T17:18:22;9.80;98.60
53695;DHT22;39588;51.124;7.190;2024-01-30T17:25:40;9.70;98.30
53695;DHT22;39588;51.124;7.190;2024-01-30T17:35:25;9.60;98.10
53695;DHT22;39588;51.124;7.190;2024-01-30T17:37:50;9.60;98.00
53695;DHT22;39588;51.124;7.190;2024-01-30T17:45:24;9.50;97.60
53695;DHT22;39588;51.124;7.190;2024-01-30T17:50:15;9.40;97.70
53695;DHT22;39588;51.124;7.190;2024-01-30T17:52:41;9.40;97.80
53695;DHT22;39588;51.124;7.190;2024-01-30T18:02:25;9.20;97.50
53695;DHT22;39588;51.124;7.190;2024-01-30T18:04:50;9.20;97.60
53695;DHT22;39588;51.124;7.190;2024-01-30T18:07:16;9.20;97.60
53695;DHT22;39588;51.124;7.190;2024-01-30T18:14:36;9.10;97.30
53695;DHT22;39588;51.124;7.190;2024-01-30T18:17:02;9.00;97.20
53695;DHT22;39588;51.124;7.190;2024-01-30T18:19:28;9.00;97.10
53695;DHT22;39588;51.124;7.190;2024-01-30T18:21:53;9.00;97.00
53695;DHT22;39588;51.124;7.190;2024-01-30T18:26:47;9.10;96.90
53695;DHT22;39588;51.124;7.190;2024-01-30T18:29:15;9.10;97.00
53695;DHT22;39588;51.124;7.190;2024-01-30T18:34:08;9.00;96.90
53695;DHT22;39588;51.124;7.190;2024-01-30T18:39:02;9.10;96.90
53695;DHT22;39588;51.124;7.190;2024-01-30T18:41:30;9.10;96.90
53695;DHT22;39588;51.124;7.190;2024-01-30T18:43:55;9.00;96.30
53695;DHT22;39588;51.124;7.190;2024-01-30T18:48:49;9.00;96.90
53695;DHT22;39588;51.124;7.190;2024-01-30T18:53:55;9.00;96.80
53695;DHT22;39588;51.124;7.190;2024-01-30T18:56:22;9.00;97.00
53695;DHT22;39588;51.124;7.190;2024-01-30T18:58:47;9.10;97.10
53695;DHT22;39588;51.124;7.190;2024-01-30T19:01:13;9.10;97.20
53695;DHT22;39588;51.124;7.190;2024-01-30T19:03:39;9.10;97.30
53695;DHT22;39588;51.124;7.190;2024-01-30T19:06:05;9.00;97.40
53695;DHT22;39588;51.124;7.190;2024-01-30T19:08:30;9.00;97.40
53695;DHT22;39588;51.124;7.190;2024-01-30T19:13:22;9.00;97.80
53695;DHT22;39588;51.124;7.190;2024-01-30T19:23:09;8.90;98.20
53695;DHT22;39588;51.124;7.190;2024-01-30T19:25:34;8.80;98.40
53695;DHT22;39588;51.124;7.190;2024-01-30T19:28:00;8.80;98.70
53695;DHT22;39588;51.124;7.190;2024-01-30T19:40:10;8.60;99.20
53695;DHT22;39588;51.124;7.190;2024-01-30T19:42:36;8.60;99.30
53695;DHT22;39588;51.124;7.190;2024-01-30T19:45:03;4.70;97.70
53695;DHT22;39588;51.124;7.190;2024-01-30T19:49:56;8.50;99.20
53695;DHT22;39588;51.124;7.190;2024-01-30T19:54:48;8.50;99.20
53695;DHT22;39588;51.124;7.190;2024-01-30T19:57:13;8.40;99.30
53695;DHT22;39588;51.124;7.190;2024-01-30T19:59:39;8.40;99.30
53695;DHT22;39588;51.124;7.190;2024-01-30T20:02:06;8.40;99.30
53695;DHT22;39588;51.124;7.190;2024-01-30T20:06:59;8.40;99.50
53695;DHT22;39588;51.124;7.190;2024-01-30T20:09:25;8.40;99.40
53695;DHT22;39588;51.124;7.190;2024-01-30T20:14:16;8.40;99.50
53695;DHT22;39588;51.124;7.190;2024-01-30T20:16:42;8.40;99.50
53695;DHT22;39588;51.124;7.190;2024-01-30T20:19:09;8.40;99.60
53695;DHT22;39588;51.124;7.190;2024-01-30T20:21:36;8.40;99.60
53695;DHT22;39588;51.124;7.190;2024-01-30T20:24:03;8.40;99.60
53695;DHT22;39588;51.124;7.190;2024-01-30T20:26:29;8.40;99.70
53695;DHT22;39588;51.124;7.190;2024-01-30T20:31:21;8.40;99.70
53695;DHT22;39588;51.124;7.190;2024-01-30T20:33:48;8.30;99.70
53695;DHT22;39588;51.124;7.190;2024-01-30T20:36:15;8.30;99.80
53695;DHT22;39588;51.124;7.190;2024-01-30T20:43:42;8.20;99.90
53695;DHT22;39588;51.124;7.190;2024-01-30T20:46:08;8.20;99.90
53695;DHT22;39588;51.124;7.190;2024-01-30T20:53:29;8.00;99.90
53695;DHT22;39588;51.124;7.190;2024-01-30T20:56:12;8.00;99.90
53695;DHT22;39588;51.124;7.190;2024-01-30T21:10:52;8.00;99.90
53695;DHT22;39588;51.124;7.190;2024-01-30T21:13:20;7.90;99.90
53695;DHT22;39588;51.124;7.190;2024-01-30T21:15:45;7.90;99.90
53695;DHT22;39588;51.124;7.190;2024-01-30T21:18:11;7.90;99.90
53695;DHT22;39588;51.124;7.190;2024-01-30T21:23:05;7.80;99.90
53695;DHT22;39588;51.124;7.190;2024-01-30T21:25:31;7.80;99.90
53695;DHT22;39588;51.124;7.190;2024-01-30T21:37:44;7.90;99.90
53695;DHT22;39588;51.124;7.190;2024-01-30T21:40:10;7.90;99.90
53695;DHT22;39588;51.124;7.190;2024-01-30T21:42:36;7.90;99.90
53695;DHT22;39588;51.124;7.190;2024-01-30T22:04:33;7.90;99.90
53695;DHT22;39588;51.124;7.190;2024-01-30T22:11:51;7.90;99.90
53695;DHT22;39588;51.124;7.190;2024-01-30T22:14:16;7.90;99.90
53695;DHT22;39588;51.124;7.190;2024-01-30T22:16:43;7.90;99.90
53695;DHT22;39588;51.124;7.190;2024-01-30T22:21:36;7.80;99.90
53695;DHT22;39588;51.124;7.190;2024-01-30T22:26:28;7.80;99.90
53695;DHT22;39588;51.124;7.190;2024-01-30T22:28:53;7.80;99.90
53695;DHT22;39588;51.124;7.190;2024-01-30T22:36:13;7.70;99.90
53695;DHT22;39588;51.124;7.190;2024-01-30T22:38:42;7.70;99.90
53695;DHT22;39588;51.124;7.190;2024-01-30T22:41:08;7.70;99.90
53695;DHT22;39588;51.124;7.190;2024-01-30T22:43:34;7.70;99.90
53695;DHT22;39588;51.124;7.190;2024-01-30T22:45:59;7.70;99.90
53695;DHT22;39588;51.124;7.190;2024-01-30T22:58:09;7.70;99.90
53695;DHT22;39588;51.124;7.190;2024-01-30T23:00:35;7.70;99.90
53695;DHT22;39588;51.124;7.190;2024-01-30T23:03:01;7.70;99.90
53695;DHT22;39588;51.124;7.190;2024-01-30T23:07:55;7.70;99.90
53695;DHT22;39588;51.124;7.190;2024-01-30T23:12:47;7.60;99.90
53695;DHT22;39588;51.124;7.190;2024-01-30T23:15:13;7.50;99.90
53695;DHT22;39588;51.124;7.190;2024-01-30T23:22:31;7.60;99.90
53695;DHT22;39588;51.124;7.190;2024-01-30T23:27:23;7.60;99.90
53695;DHT22;39588;51.124;7.190;2024-01-30T23:29:48;7.60;99.90
53695;DHT22;39588;51.124;7.190;2024-01-30T23:39:33;7.60;99.90
53695;DHT22;39588;51.124;7.190;2024-01-30T23:41:59;7.50;99.90
53695;DHT22;39588;51.124;7.190;2024-01-30T23:44:25;7.60;99.90
53695;DHT22;39588;51.124;7.190;2024-01-30T23:51:43;7.60;99.90
53695;DHT22;39588;51.124;7.190;2024-01-30T23:56:39;7.60;99.90
53695;DHT22;39588;51.124;7.190;2024-01-30T23:59:06;7.50;99.90
